sensor_id;sensor_type;location;lat;lon;timestamp;pressure;altitude;pressure_sealevel;temperature;humidity
86020;BME280;76596;51.056;-1.798;2024-03-08T00:00:55;100458.19;;;4.17;81.06
86020;BME280;76596;51.056;-1.798;2024-03-08T00:03:21;100459.88;;;4.18;80.82
86020;BME280;76596;51.056;-1.798;2024-03-08T00:05:46;100463.19;;;4.14;81.24
86020;BME280;76596;51.056;-1.798;2024-03-08T00:08:11;100458.97;;;4.13;81.18
86020;BME280;76596;51.056;-1.798;2024-03-08T00:10:37;100461.47;;;4.10;81.04
86020;BME280;76596;51.056;-1.798;2024-03-08T00:13:04;100450.47;;;4.13;81.67
86020;BME280;76596;51.056;-1.798;2024-03-08T00:15:29;100453.81;;;4.07;81.87
86020;BME280;76596;51.056;-1.798;2024-03-08T00:17:57;100450.34;;;4.04;81.84
86020;BME280;76596;51.056;-1.798;2024-03-08T00:20:22;100446.16;;;4.04;82.01
86020;BME280;76596;51.056;-1.798;2024-03-08T00:22:48;100445.31;;;4.05;81.63
86020;BME280;76596;51.056;-1.798;2024-03-08T00:25:14;100442.78;;;4.08;82.20
86020;BME280;76596;51.056;-1.798;2024-03-08T00:27:39;100436.84;;;4.05;82.10
86020;BME280;76596;51.056;-1.798;2024-03-08T00:30:06;100432.63;;;4.07;82.46
86020;BME280;76596;51.056;-1.798;2024-03-08T00:32:32;100430.09;;;4.08;82.23
86020;BME280;76596;51.056;-1.798;2024-03-08T00:34:58;100424.16;;;4.09;82.08
86020;BME280;76596;51.056;-1.798;2024-03-08T00:37:23;100422.47;;;4.08;82.08
86020;BME280;76596;51.056;-1.798;2024-03-08T00:39:49;100421.63;;;4.09;82.19
86020;BME280;76596;51.056;-1.798;2024-03-08T00:42:15;100417.38;;;4.08;81.83
86020;BME280;76596;51.056;-1.798;2024-03-08T00:44:41;100414.81;;;4.07;81.96
86020;BME280;76596;51.056;-1.798;2024-03-08T00:47:06;100407.19;;;4.05;82.36
86020;BME280;76596;51.056;-1.798;2024-03-08T00:49:31;100403.81;;;4.06;81.92
86020;BME280;76596;51.056;-1.798;2024-03-08T00:51:57;100398.72;;;4.06;82.20
86020;BME280;76596;51.056;-1.798;2024-03-08T00:54:22;100396.13;;;4.03;81.93
86020;BME280;76596;51.056;-1.798;2024-03-08T00:56:48;100396.94;;;3.99;81.65
86020;BME280;76596;51.056;-1.798;2024-03-08T00:59:13;100396.88;;;3.93;82.12
86020;BME280;76596;51.056;-1.798;2024-03-08T01:01:42;100390.09;;;3.93;82.62
86020;BME280;76596;51.056;-1.798;2024-03-08T01:04:09;100395.97;;;3.89;82.93
86020;BME280;76596;51.056;-1.798;2024-03-08T01:06:35;100387.50;;;3.87;82.28
86020;BME280;76596;51.056;-1.798;2024-03-08T01:09:00;100384.97;;;3.90;82.54
86020;BME280;76596;51.056;-1.798;2024-03-08T01:11:25;100385.81;;;3.89;82.94
86020;BME280;76596;51.056;-1.798;2024-03-08T01:13:53;100377.34;;;3.87;83.13
86020;BME280;76596;51.056;-1.798;2024-03-08T01:16:18;100376.44;;;3.84;82.78
86020;BME280;76596;51.056;-1.798;2024-03-08T01:18:45;100374.66;;;3.78;82.84
86020;BME280;76596;51.056;-1.798;2024-03-08T01:21:11;100370.41;;;3.77;83.33
86020;BME280;76596;51.056;-1.798;2024-03-08T01:23:37;100364.44;;;3.75;83.13
86020;BME280;76596;51.056;-1.798;2024-03-08T01:26:03;100356.81;;;3.74;83.18
86020;BME280;76596;51.056;-1.798;2024-03-08T01:28:28;100350.91;;;3.75;83.40
86020;BME280;76596;51.056;-1.798;2024-03-08T01:30:54;100351.72;;;3.74;83.06
86020;BME280;76596;51.056;-1.798;2024-03-08T01:33:26;100349.97;;;3.68;83.72
86020;BME280;76596;51.056;-1.798;2024-03-08T01:35:54;100344.88;;;3.66;83.68
86020;BME280;76596;51.056;-1.798;2024-03-08T01:38:20;100336.41;;;3.66;83.76
86020;BME280;76596;51.056;-1.798;2024-03-08T01:40:46;100332.97;;;3.64;84.23
86020;BME280;76596;51.056;-1.798;2024-03-08T01:43:41;100322.78;;;3.61;83.67
86020;BME280;76596;51.056;-1.798;2024-03-08T01:46:06;100312.63;;;3.59;83.98
86020;BME280;76596;51.056;-1.798;2024-03-08T01:48:33;100315.97;;;3.57;84.11
86020;BME280;76596;51.056;-1.798;2024-03-08T01:50:59;100309.19;;;3.56;83.84
86020;BME280;76596;51.056;-1.798;2024-03-08T01:53:26;100309.13;;;3.53;84.41
86020;BME280;76596;51.056;-1.798;2024-03-08T01:55:54;100304.91;;;3.52;84.55
86020;BME280;76596;51.056;-1.798;2024-03-08T01:58:21;100298.09;;;3.49;84.23
86020;BME280;76596;51.056;-1.798;2024-03-08T02:00:48;100293.88;;;3.50;84.32
86020;BME280;76596;51.056;-1.798;2024-03-08T02:03:15;100296.41;;;3.48;84.74
86020;BME280;76596;51.056;-1.798;2024-03-08T02:05:41;100286.19;;;3.45;84.63
86020;BME280;76596;51.056;-1.798;2024-03-08T02:08:07;100279.38;;;3.41;84.67
86020;BME280;76596;51.056;-1.798;2024-03-08T02:10:33;100281.91;;;3.39;85.34
86020;BME280;76596;51.056;-1.798;2024-03-08T02:13:01;100275.94;;;3.37;84.57
86020;BME280;76596;51.056;-1.798;2024-03-08T02:15:26;100272.50;;;3.32;85.14
86020;BME280;76596;51.056;-1.798;2024-03-08T02:17:52;100269.13;;;3.35;85.12
86020;BME280;76596;51.056;-1.798;2024-03-08T02:20:18;100259.81;;;3.34;85.14
86020;BME280;76596;51.056;-1.798;2024-03-08T02:22:45;100264.06;;;3.36;84.90
86020;BME280;76596;51.056;-1.798;2024-03-08T02:25:11;100264.03;;;3.32;84.69
86020;BME280;76596;51.056;-1.798;2024-03-08T02:27:36;100266.53;;;3.30;85.05
86020;BME280;76596;51.056;-1.798;2024-03-08T02:30:02;100254.69;;;3.29;85.21
86020;BME280;76596;51.056;-1.798;2024-03-08T02:32:27;100256.38;;;3.30;85.06
86020;BME280;76596;51.056;-1.798;2024-03-08T02:34:56;100240.28;;;3.28;85.80
86020;BME280;76596;51.056;-1.798;2024-03-08T02:37:22;100241.97;;;3.29;85.98
86020;BME280;76596;51.056;-1.798;2024-03-08T02:39:47;100236.03;;;3.26;85.14
86020;BME280;76596;51.056;-1.798;2024-03-08T02:42:12;100228.38;;;3.24;85.18
86020;BME280;76596;51.056;-1.798;2024-03-08T02:44:42;100219.94;;;3.25;85.68
86020;BME280;76596;51.056;-1.798;2024-03-08T02:47:09;100209.81;;;3.27;85.65
86020;BME280;76596;51.056;-1.798;2024-03-08T02:49:34;100210.63;;;3.24;85.67
86020;BME280;76596;51.056;-1.798;2024-03-08T02:51:59;100203.84;;;3.25;86.13
86020;BME280;76596;51.056;-1.798;2024-03-08T02:54:25;100210.63;;;3.24;85.58
86020;BME280;76596;51.056;-1.798;2024-03-08T02:56:50;100205.53;;;3.24;85.81
86020;BME280;76596;51.056;-1.798;2024-03-08T02:59:16;100202.16;;;3.24;85.88
86020;BME280;76596;51.056;-1.798;2024-03-08T03:01:42;100192.00;;;3.22;85.85
86020;BME280;76596;51.056;-1.798;2024-03-08T03:04:08;100200.44;;;3.21;86.07
86020;BME280;76596;51.056;-1.798;2024-03-08T03:06:33;100188.59;;;3.22;85.97
86020;BME280;76596;51.056;-1.798;2024-03-08T03:08:59;100189.44;;;3.21;85.62
86020;BME280;76596;51.056;-1.798;2024-03-08T03:11:24;100177.59;;;3.21;85.78
86020;BME280;76596;51.056;-1.798;2024-03-08T03:13:49;100176.69;;;3.16;86.39
86020;BME280;76596;51.056;-1.798;2024-03-08T03:16:21;100170.78;;;3.18;85.84
86020;BME280;76596;51.056;-1.798;2024-03-08T03:18:46;100162.31;;;3.18;85.86
86020;BME280;76596;51.056;-1.798;2024-03-08T03:21:13;100156.38;;;3.16;86.63
86020;BME280;76596;51.056;-1.798;2024-03-08T03:23:39;100164.78;;;3.12;86.25
86020;BME280;76596;51.056;-1.798;2024-03-08T03:26:08;100154.63;;;3.12;86.41
86020;BME280;76596;51.056;-1.798;2024-03-08T03:28:36;100157.16;;;3.09;86.54
86020;BME280;76596;51.056;-1.798;2024-03-08T03:31:07;100148.66;;;3.07;86.32
86020;BME280;76596;51.056;-1.798;2024-03-08T03:33:33;100143.56;;;3.05;86.64
86020;BME280;76596;51.056;-1.798;2024-03-08T03:36:02;100150.34;;;3.06;86.63
86020;BME280;76596;51.056;-1.798;2024-03-08T03:38:28;100136.81;;;3.06;86.32
86020;BME280;76596;51.056;-1.798;2024-03-08T03:40:53;100138.50;;;3.04;86.35
86020;BME280;76596;51.056;-1.798;2024-03-08T03:43:23;100135.06;;;3.02;86.84
86020;BME280;76596;51.056;-1.798;2024-03-08T03:45:48;100135.91;;;3.01;86.15
86020;BME280;76596;51.056;-1.798;2024-03-08T03:48:13;100125.75;;;3.02;86.08
86020;BME280;76596;51.056;-1.798;2024-03-08T03:50:39;100124.06;;;3.00;86.76
86020;BME280;76596;51.056;-1.798;2024-03-08T03:53:04;100124.97;;;3.06;86.57
86020;BME280;76596;51.056;-1.798;2024-03-08T03:55:32;100114.81;;;3.06;87.20
86020;BME280;76596;51.056;-1.798;2024-03-08T03:57:58;100113.97;;;3.06;86.42
86020;BME280;76596;51.056;-1.798;2024-03-08T04:00:26;100116.53;;;3.07;86.18
86020;BME280;76596;51.056;-1.798;2024-03-08T04:02:52;100108.91;;;3.06;86.23
86020;BME280;76596;51.056;-1.798;2024-03-08T04:05:17;100113.97;;;3.06;87.15
86020;BME280;76596;51.056;-1.798;2024-03-08T04:07:43;100104.66;;;3.03;87.02
86020;BME280;76596;51.056;-1.798;2024-03-08T04:10:10;100104.66;;;3.05;86.16
86020;BME280;76596;51.056;-1.798;2024-03-08T04:12:36;100099.53;;;3.00;86.76
86020;BME280;76596;51.056;-1.798;2024-03-08T04:15:02;100097.84;;;2.99;87.49
86020;BME280;76596;51.056;-1.798;2024-03-08T04:17:28;100097.84;;;3.01;87.29
86020;BME280;76596;51.056;-1.798;2024-03-08T04:19:53;100094.41;;;2.97;86.87
86020;BME280;76596;51.056;-1.798;2024-03-08T04:22:19;100088.47;;;2.97;86.44
86020;BME280;76596;51.056;-1.798;2024-03-08T04:24:45;100078.38;;;2.98;86.54
86020;BME280;76596;51.056;-1.798;2024-03-08T04:27:11;100078.31;;;2.95;86.60
86020;BME280;76596;51.056;-1.798;2024-03-08T04:29:36;100084.25;;;2.94;86.44
86020;BME280;76596;51.056;-1.798;2024-03-08T04:32:05;100072.34;;;2.91;87.27
86020;BME280;76596;51.056;-1.798;2024-03-08T04:34:32;100065.56;;;2.87;86.92
86020;BME280;76596;51.056;-1.798;2024-03-08T04:36:57;100067.22;;;2.85;86.82
86020;BME280;76596;51.056;-1.798;2024-03-08T04:39:23;100062.97;;;2.84;87.36
86020;BME280;76596;51.056;-1.798;2024-03-08T04:41:49;100057.06;;;2.82;87.53
86020;BME280;76596;51.056;-1.798;2024-03-08T04:44:15;100055.38;;;2.84;87.06
86020;BME280;76596;51.056;-1.798;2024-03-08T04:46:41;100049.44;;;2.82;86.60
86020;BME280;76596;51.056;-1.798;2024-03-08T04:49:06;100051.97;;;2.81;87.71
86020;BME280;76596;51.056;-1.798;2024-03-08T04:51:32;100040.09;;;2.78;87.58
86020;BME280;76596;51.056;-1.798;2024-03-08T04:53:58;100043.47;;;2.79;87.55
86020;BME280;76596;51.056;-1.798;2024-03-08T04:56:25;100035.00;;;2.78;87.00
86020;BME280;76596;51.056;-1.798;2024-03-08T04:58:50;100039.22;;;2.76;87.22
86020;BME280;76596;51.056;-1.798;2024-03-08T05:01:16;100036.66;;;2.73;87.37
86020;BME280;76596;51.056;-1.798;2024-03-08T05:03:41;100030.72;;;2.71;87.26
86020;BME280;76596;51.056;-1.798;2024-03-08T05:06:07;100028.19;;;2.70;87.19
86020;BME280;76596;51.056;-1.798;2024-03-08T05:08:32;100020.59;;;2.73;87.56
86020;BME280;76596;51.056;-1.798;2024-03-08T05:10:58;100023.19;;;2.79;87.99
86020;BME280;76596;51.056;-1.798;2024-03-08T05:13:23;100020.63;;;2.77;87.27
86020;BME280;76596;51.056;-1.798;2024-03-08T05:15:49;100029.09;;;2.79;87.32
86020;BME280;76596;51.056;-1.798;2024-03-08T05:18:17;100021.50;;;2.79;86.84
86020;BME280;76596;51.056;-1.798;2024-03-08T05:20:43;100018.97;;;2.79;87.41
86020;BME280;76596;51.056;-1.798;2024-03-08T05:23:08;100013.03;;;2.76;87.33
86020;BME280;76596;51.056;-1.798;2024-03-08T05:25:34;100013.03;;;2.77;87.17
86020;BME280;76596;51.056;-1.798;2024-03-08T05:28:00;100004.59;;;2.78;86.55
86020;BME280;76596;51.056;-1.798;2024-03-08T05:30:25;100003.75;;;2.78;86.67
86020;BME280;76596;51.056;-1.798;2024-03-08T05:32:50;100004.56;;;2.75;86.87
86020;BME280;76596;51.056;-1.798;2024-03-08T05:35:16;100001.13;;;2.72;87.20
86020;BME280;76596;51.056;-1.798;2024-03-08T05:37:41;99999.44;;;2.71;87.45
86020;BME280;76596;51.056;-1.798;2024-03-08T05:40:10;100005.38;;;2.74;87.27
86020;BME280;76596;51.056;-1.798;2024-03-08T05:42:36;100007.91;;;2.74;86.78
86020;BME280;76596;51.056;-1.798;2024-03-08T05:45:02;100005.41;;;2.76;86.59
86020;BME280;76596;51.056;-1.798;2024-03-08T05:47:27;100005.38;;;2.73;86.84
86020;BME280;76596;51.056;-1.798;2024-03-08T05:49:53;100007.06;;;2.74;86.73
86020;BME280;76596;51.056;-1.798;2024-03-08T05:52:19;100006.19;;;2.70;87.07
86020;BME280;76596;51.056;-1.798;2024-03-08T05:54:44;100009.59;;;2.71;86.37
86020;BME280;76596;51.056;-1.798;2024-03-08T05:57:11;99998.53;;;2.67;86.30
86020;BME280;76596;51.056;-1.798;2024-03-08T05:59:36;100002.81;;;2.70;87.20
86020;BME280;76596;51.056;-1.798;2024-03-08T06:02:01;100005.34;;;2.70;86.23
86020;BME280;76596;51.056;-1.798;2024-03-08T06:04:27;100010.38;;;2.68;86.40
86020;BME280;76596;51.056;-1.798;2024-03-08T06:06:54;100005.25;;;2.63;86.77
86020;BME280;76596;51.056;-1.798;2024-03-08T06:09:22;100012.06;;;2.66;86.38
86020;BME280;76596;51.056;-1.798;2024-03-08T06:11:48;100018.81;;;2.64;86.27
86020;BME280;76596;51.056;-1.798;2024-03-08T06:14:14;100013.69;;;2.61;86.63
86020;BME280;76596;51.056;-1.798;2024-03-08T06:16:46;100004.41;;;2.61;86.60
86020;BME280;76596;51.056;-1.798;2024-03-08T06:19:12;100006.09;;;2.62;86.51
86020;BME280;76596;51.056;-1.798;2024-03-08T06:21:38;100001.88;;;2.61;86.20
86020;BME280;76596;51.056;-1.798;2024-03-08T06:24:04;99996.78;;;2.61;86.04
86020;BME280;76596;51.056;-1.798;2024-03-08T06:26:29;100009.47;;;2.61;86.72
86020;BME280;76596;51.056;-1.798;2024-03-08T06:28:55;100003.50;;;2.56;86.52
86020;BME280;76596;51.056;-1.798;2024-03-08T06:31:20;100007.72;;;2.57;86.88
86020;BME280;76596;51.056;-1.798;2024-03-08T06:33:47;100007.72;;;2.57;86.86
86020;BME280;76596;51.056;-1.798;2024-03-08T06:36:16;99997.63;;;2.59;86.36
86020;BME280;76596;51.056;-1.798;2024-03-08T06:38:44;100007.72;;;2.57;86.16
86020;BME280;76596;51.056;-1.798;2024-03-08T06:41:11;99997.59;;;2.57;85.67
86020;BME280;76596;51.056;-1.798;2024-03-08T06:43:46;100004.38;;;2.58;86.11
86020;BME280;76596;51.056;-1.798;2024-03-08T06:46:14;100000.94;;;2.55;85.83
86020;BME280;76596;51.056;-1.798;2024-03-08T06:48:40;99996.72;;;2.54;85.54
86020;BME280;76596;51.056;-1.798;2024-03-08T06:51:05;99997.56;;;2.56;85.59
86020;BME280;76596;51.056;-1.798;2024-03-08T06:53:31;99990.88;;;2.61;85.75
86020;BME280;76596;51.056;-1.798;2024-03-08T06:55:57;100002.69;;;2.59;85.76
86020;BME280;76596;51.056;-1.798;2024-03-08T06:58:23;100005.25;;;2.62;84.72
86020;BME280;76596;51.056;-1.798;2024-03-08T07:00:48;99998.59;;;2.70;84.97
86020;BME280;76596;51.056;-1.798;2024-03-08T07:03:17;99996.06;;;2.73;84.67
86020;BME280;76596;51.056;-1.798;2024-03-08T07:05:43;99996.06;;;2.73;84.71
86020;BME280;76596;51.056;-1.798;2024-03-08T07:08:08;99985.97;;;2.76;83.80
86020;BME280;76596;51.056;-1.798;2024-03-08T07:10:34;99981.81;;;2.83;84.36
86020;BME280;76596;51.056;-1.798;2024-03-08T07:13:00;99985.25;;;2.88;83.70
86020;BME280;76596;51.056;-1.798;2024-03-08T07:15:27;99985.31;;;2.96;83.04
86020;BME280;76596;51.056;-1.798;2024-03-08T07:17:53;99982.81;;;3.02;82.83
86020;BME280;76596;51.056;-1.798;2024-03-08T07:20:19;99982.94;;;3.11;83.08
86020;BME280;76596;51.056;-1.798;2024-03-08T07:22:46;99986.41;;;3.22;82.65
86020;BME280;76596;51.056;-1.798;2024-03-08T07:25:18;99972.94;;;3.29;81.72
86020;BME280;76596;51.056;-1.798;2024-03-08T07:27:54;99978.09;;;3.37;81.96
86020;BME280;76596;51.056;-1.798;2024-03-08T07:30:24;99975.50;;;3.35;81.42
86020;BME280;76596;51.056;-1.798;2024-03-08T07:33:11;99976.41;;;3.39;81.51
86020;BME280;76596;51.056;-1.798;2024-03-08T07:35:37;99977.34;;;3.52;80.99
86020;BME280;76596;51.056;-1.798;2024-03-08T07:38:04;99980.84;;;3.66;80.33
86020;BME280;76596;51.056;-1.798;2024-03-08T07:40:34;99974.97;;;3.79;80.49
86020;BME280;76596;51.056;-1.798;2024-03-08T07:43:00;99972.53;;;3.97;79.66
86020;BME280;76596;51.056;-1.798;2024-03-08T07:45:25;99969.19;;;3.98;79.15
86020;BME280;76596;51.056;-1.798;2024-03-08T07:47:51;99970.09;;;4.20;77.73
86020;BME280;76596;51.056;-1.798;2024-03-08T07:50:28;99965.91;;;4.30;77.03
86020;BME280;76596;51.056;-1.798;2024-03-08T07:52:54;99958.38;;;4.58;77.03
86020;BME280;76596;51.056;-1.798;2024-03-08T07:55:20;99949.13;;;4.78;75.43
86020;BME280;76596;51.056;-1.798;2024-03-08T07:57:45;99949.16;;;5.21;74.94
86020;BME280;76596;51.056;-1.798;2024-03-08T08:00:13;99948.31;;;5.51;73.67
86020;BME280;76596;51.056;-1.798;2024-03-08T08:02:43;99942.31;;;5.64;72.39
86020;BME280;76596;51.056;-1.798;2024-03-08T08:05:08;99938.03;;;6.01;72.09
86020;BME280;76596;51.056;-1.798;2024-03-08T08:07:35;99930.25;;;6.32;70.65
86020;BME280;76596;51.056;-1.798;2024-03-08T08:10:01;99919.09;;;6.51;69.64
86020;BME280;76596;51.056;-1.798;2024-03-08T08:12:26;99918.41;;;7.43;68.28
86020;BME280;76596;51.056;-1.798;2024-03-08T08:14:54;99912.22;;;7.65;66.27
86020;BME280;76596;51.056;-1.798;2024-03-08T08:17:22;99911.84;;;7.16;67.40
86020;BME280;76596;51.056;-1.798;2024-03-08T08:19:47;99914.31;;;7.27;66.40
86020;BME280;76596;51.056;-1.798;2024-03-08T08:22:13;99913.19;;;7.54;65.72
86020;BME280;76596;51.056;-1.798;2024-03-08T08:24:38;99900.16;;;7.78;65.70
86020;BME280;76596;51.056;-1.798;2024-03-08T08:27:05;99890.91;;;8.42;63.20
86020;BME280;76596;51.056;-1.798;2024-03-08T08:29:30;99887.88;;;8.72;62.44
86020;BME280;76596;51.056;-1.798;2024-03-08T08:31:59;99891.56;;;8.55;62.94
86020;BME280;76596;51.056;-1.798;2024-03-08T08:34:25;99887.31;;;9.09;60.88
86020;BME280;76596;51.056;-1.798;2024-03-08T08:36:52;99874.13;;;8.78;61.39
86020;BME280;76596;51.056;-1.798;2024-03-08T08:39:18;99882.63;;;8.82;61.11
86020;BME280;76596;51.056;-1.798;2024-03-08T08:41:44;99871.00;;;9.13;59.58
86020;BME280;76596;51.056;-1.798;2024-03-08T08:44:09;99862.78;;;9.44;59.34
86020;BME280;76596;51.056;-1.798;2024-03-08T08:46:39;99865.91;;;10.43;57.65
86020;BME280;76596;51.056;-1.798;2024-03-08T08:49:04;99857.44;;;9.98;57.54
86020;BME280;76596;51.056;-1.798;2024-03-08T08:51:31;99851.09;;;10.16;57.68
86020;BME280;76596;51.056;-1.798;2024-03-08T08:53:59;99854.09;;;9.51;57.75
86020;BME280;76596;51.056;-1.798;2024-03-08T08:56:24;99843.66;;;9.14;60.14
86020;BME280;76596;51.056;-1.798;2024-03-08T08:58:51;99846.28;;;9.57;58.46
86020;BME280;76596;51.056;-1.798;2024-03-08T09:01:16;99836.91;;;9.99;57.84
86020;BME280;76596;51.056;-1.798;2024-03-08T09:03:43;99835.91;;;9.63;57.38
86020;BME280;76596;51.056;-1.798;2024-03-08T09:06:12;99843.03;;;9.01;59.33
86020;BME280;76596;51.056;-1.798;2024-03-08T09:08:38;99831.06;;;9.91;58.24
86020;BME280;76596;51.056;-1.798;2024-03-08T09:11:04;99835.66;;;9.77;57.15
86020;BME280;76596;51.056;-1.798;2024-03-08T09:13:30;99835.88;;;9.65;58.23
86020;BME280;76596;51.056;-1.798;2024-03-08T09:15:55;99830.44;;;10.22;57.25
86020;BME280;76596;51.056;-1.798;2024-03-08T09:18:21;99826.16;;;10.61;55.68
86020;BME280;76596;51.056;-1.798;2024-03-08T09:20:46;99821.00;;;10.61;55.38
86020;BME280;76596;51.056;-1.798;2024-03-08T09:23:12;99819.66;;;11.15;54.54
86020;BME280;76596;51.056;-1.798;2024-03-08T09:25:38;99816.13;;;11.81;52.47
86020;BME280;76596;51.056;-1.798;2024-03-08T09:28:04;99818.69;;;10.86;54.27
86020;BME280;76596;51.056;-1.798;2024-03-08T09:30:30;99793.06;;;10.08;55.97
86020;BME280;76596;51.056;-1.798;2024-03-08T09:32:56;99806.25;;;11.36;53.57
86020;BME280;76596;51.056;-1.798;2024-03-08T09:35:21;99811.63;;;11.27;52.32
86020;BME280;76596;51.056;-1.798;2024-03-08T09:37:47;99802.03;;;11.01;54.35
86020;BME280;76596;51.056;-1.798;2024-03-08T09:40:16;99798.03;;;11.23;53.48
86020;BME280;76596;51.056;-1.798;2024-03-08T09:42:44;99797.47;;;10.42;53.66
86020;BME280;76596;51.056;-1.798;2024-03-08T09:45:11;99791.63;;;10.71;54.48
86020;BME280;76596;51.056;-1.798;2024-03-08T09:47:41;99792.91;;;10.89;54.68
86020;BME280;76596;51.056;-1.798;2024-03-08T09:50:08;99791.00;;;11.59;53.51
86020;BME280;76596;51.056;-1.798;2024-03-08T09:52:36;99790.22;;;10.59;55.18
86020;BME280;76596;51.056;-1.798;2024-03-08T09:55:05;99785.69;;;11.36;52.92
86020;BME280;76596;51.056;-1.798;2024-03-08T09:57:32;99786.94;;;10.53;54.43
86020;BME280;76596;51.056;-1.798;2024-03-08T09:59:58;99784.97;;;11.62;52.32
86020;BME280;76596;51.056;-1.798;2024-03-08T10:02:24;99772.56;;;11.14;52.46
86020;BME280;76596;51.056;-1.798;2024-03-08T10:04:51;99778.56;;;11.46;51.94
86020;BME280;76596;51.056;-1.798;2024-03-08T10:07:18;99779.41;;;11.45;51.66
86020;BME280;76596;51.056;-1.798;2024-03-08T10:09:44;99769.13;;;11.13;53.15
86020;BME280;76596;51.056;-1.798;2024-03-08T10:12:18;99761.88;;;10.97;53.85
86020;BME280;76596;51.056;-1.798;2024-03-08T10:14:45;99756.97;;;11.51;51.84
86020;BME280;76596;51.056;-1.798;2024-03-08T10:17:11;99751.81;;;11.51;52.43
86020;BME280;76596;51.056;-1.798;2024-03-08T10:19:37;99747.63;;;10.51;53.91
86020;BME280;76596;51.056;-1.798;2024-03-08T10:22:02;99743.03;;;11.27;53.15
86020;BME280;76596;51.056;-1.798;2024-03-08T10:24:29;99748.09;;;10.31;55.07
86020;BME280;76596;51.056;-1.798;2024-03-08T10:27:01;99747.84;;;10.42;55.36
86020;BME280;76596;51.056;-1.798;2024-03-08T10:29:33;99736.31;;;10.58;55.66
86020;BME280;76596;51.056;-1.798;2024-03-08T10:31:58;99735.13;;;9.98;55.90
86020;BME280;76596;51.056;-1.798;2024-03-08T10:34:25;99738.50;;;9.62;56.31
86020;BME280;76596;51.056;-1.798;2024-03-08T10:36:51;99723.75;;;9.73;56.36
86020;BME280;76596;51.056;-1.798;2024-03-08T10:39:24;99723.22;;;10.35;56.00
86020;BME280;76596;51.056;-1.798;2024-03-08T10:41:58;99715.41;;;10.72;54.92
86020;BME280;76596;51.056;-1.798;2024-03-08T10:47:02;99712.44;;;10.87;53.53
86020;BME280;76596;51.056;-1.798;2024-03-08T10:52:13;99694.66;;;12.26;51.55
86020;BME280;76596;51.056;-1.798;2024-03-08T10:54:40;99681.13;;;12.45;49.74
86020;BME280;76596;51.056;-1.798;2024-03-08T10:57:09;99689.22;;;12.35;49.59
86020;BME280;76596;51.056;-1.798;2024-03-08T10:59:37;99681.94;;;12.48;49.14
86020;BME280;76596;51.056;-1.798;2024-03-08T11:02:04;99678.09;;;12.59;49.36
86020;BME280;76596;51.056;-1.798;2024-03-08T11:04:31;99674.53;;;12.63;49.46
86020;BME280;76596;51.056;-1.798;2024-03-08T11:07:02;99676.56;;;12.79;47.48
86020;BME280;76596;51.056;-1.798;2024-03-08T11:09:32;99674.16;;;12.74;47.04
86020;BME280;76596;51.056;-1.798;2024-03-08T11:14:47;99666.38;;;12.99;47.55
86020;BME280;76596;51.056;-1.798;2024-03-08T11:17:16;99653.03;;;12.88;47.59
86020;BME280;76596;51.056;-1.798;2024-03-08T11:19:49;99660.78;;;12.88;47.53
86020;BME280;76596;51.056;-1.798;2024-03-08T11:22:25;99661.44;;;13.41;44.88
86020;BME280;76596;51.056;-1.798;2024-03-08T11:24:52;99648.09;;;12.58;46.70
86020;BME280;76596;51.056;-1.798;2024-03-08T11:27:17;99651.06;;;13.43;45.37
86020;BME280;76596;51.056;-1.798;2024-03-08T11:29:43;99651.59;;;13.51;44.73
86020;BME280;76596;51.056;-1.798;2024-03-08T11:34:35;99637.19;;;14.52;42.92
86020;BME280;76596;51.056;-1.798;2024-03-08T11:37:03;99630.75;;;14.81;41.83
86020;BME280;76596;51.056;-1.798;2024-03-08T11:39:29;99622.13;;;15.20;40.90
86020;BME280;76596;51.056;-1.798;2024-03-08T11:41:56;99625.16;;;16.02;40.17
86020;BME280;76596;51.056;-1.798;2024-03-08T11:44:21;99624.59;;;15.59;39.73
86020;BME280;76596;51.056;-1.798;2024-03-08T11:46:46;99633.50;;;15.53;40.32
86020;BME280;76596;51.056;-1.798;2024-03-08T11:49:13;99631.47;;;15.03;41.71
86020;BME280;76596;51.056;-1.798;2024-03-08T11:51:39;99631.16;;;13.23;44.57
86020;BME280;76596;51.056;-1.798;2024-03-08T11:54:06;99632.25;;;13.39;45.44
86020;BME280;76596;51.056;-1.798;2024-03-08T11:56:31;99627.78;;;13.44;44.14
86020;BME280;76596;51.056;-1.798;2024-03-08T11:58:57;99630.06;;;14.16;42.81
86020;BME280;76596;51.056;-1.798;2024-03-08T12:01:23;99607.28;;;14.67;41.68
86020;BME280;76596;51.056;-1.798;2024-03-08T12:03:53;99616.06;;;14.63;42.20
86020;BME280;76596;51.056;-1.798;2024-03-08T12:06:19;99618.66;;;14.42;41.19
86020;BME280;76596;51.056;-1.798;2024-03-08T12:08:46;99616.50;;;14.11;41.83
86020;BME280;76596;51.056;-1.798;2024-03-08T12:11:14;99617.34;;;13.69;42.55
86020;BME280;76596;51.056;-1.798;2024-03-08T12:13:41;99618.69;;;13.34;44.31
86020;BME280;76596;51.056;-1.798;2024-03-08T12:16:07;99613.59;;;12.12;46.02
86020;BME280;76596;51.056;-1.798;2024-03-08T12:18:34;99609.16;;;11.89;47.25
86020;BME280;76596;51.056;-1.798;2024-03-08T12:21:11;99606.94;;;11.79;47.60
86020;BME280;76596;51.056;-1.798;2024-03-08T12:23:38;99599.66;;;11.65;47.02
86020;BME280;76596;51.056;-1.798;2024-03-08T12:26:14;99595.78;;;11.52;48.18
86020;BME280;76596;51.056;-1.798;2024-03-08T12:28:44;99598.88;;;11.61;48.31
86020;BME280;76596;51.056;-1.798;2024-03-08T12:31:12;99584.13;;;11.12;49.54
86020;BME280;76596;51.056;-1.798;2024-03-08T12:33:50;99579.00;;;11.12;49.85
86020;BME280;76596;51.056;-1.798;2024-03-08T12:36:16;99568.41;;;11.23;52.01
86020;BME280;76596;51.056;-1.798;2024-03-08T12:38:45;99567.38;;;10.99;50.01
86020;BME280;76596;51.056;-1.798;2024-03-08T12:41:16;99555.16;;;11.07;49.55
86020;BME280;76596;51.056;-1.798;2024-03-08T12:43:44;99554.47;;;11.30;50.49
86020;BME280;76596;51.056;-1.798;2024-03-08T12:46:14;99544.53;;;11.72;50.41
86020;BME280;76596;51.056;-1.798;2024-03-08T12:48:40;99548.56;;;12.07;48.54
86020;BME280;76596;51.056;-1.798;2024-03-08T12:51:08;99537.69;;;12.24;48.46
86020;BME280;76596;51.056;-1.798;2024-03-08T12:53:34;99537.00;;;12.42;48.75
86020;BME280;76596;51.056;-1.798;2024-03-08T12:56:00;99530.94;;;12.68;46.89
86020;BME280;76596;51.056;-1.798;2024-03-08T12:58:26;99536.69;;;12.52;46.12
86020;BME280;76596;51.056;-1.798;2024-03-08T13:00:51;99523.69;;;12.31;47.86